createdAt,value
2023-01-05T00:02:24.434Z,7.75
2023-01-05T00:06:43.183Z,7.70
2023-01-05T00:11:46.347Z,7.68
2023-01-05T00:16:23.102Z,7.67
2023-01-05T00:20:59.424Z,7.65
2023-01-05T00:25:21.628Z,7.64
2023-01-05T00:29:38.821Z,7.61
2023-01-05T00:33:56.372Z,7.60
2023-01-05T00:38:13.807Z,7.68
2023-01-05T00:42:31.481Z,7.61
2023-01-05T00:46:48.623Z,7.42
2023-01-05T00:51:06.401Z,7.46
2023-01-05T00:55:24.196Z,7.54
2023-01-05T00:59:42.428Z,7.53
2023-01-05T01:03:59.869Z,7.60
2023-01-05T01:08:17.481Z,7.68
2023-01-05T01:12:35.042Z,7.70
2023-01-05T01:16:52.383Z,7.77
2023-01-05T01:21:09.966Z,7.62
2023-01-05T01:25:27.923Z,7.32
2023-01-05T01:29:45.496Z,7.29
2023-01-05T01:34:03.196Z,7.20
2023-01-05T01:38:21.382Z,7.19
2023-01-05T01:42:39.025Z,7.20
2023-01-05T01:46:56.723Z,7.09
2023-01-05T01:51:22.654Z,7.09
2023-01-05T01:55:41.364Z,7.18
2023-01-05T02:00:00.218Z,7.26
2023-01-05T02:04:18.220Z,7.13
2023-01-05T02:08:35.756Z,7.06
2023-01-05T02:13:31.647Z,7.02
2023-01-05T02:18:20.597Z,7.01
2023-01-05T02:23:09.998Z,7.08
2023-01-05T02:27:54.333Z,7.22
2023-01-05T02:32:55.236Z,7.30
2023-01-05T02:37:33.119Z,7.36
2023-01-05T02:42:13.146Z,7.44
2023-01-05T02:46:30.833Z,7.53
2023-01-05T02:51:02.559Z,7.64
2023-01-05T02:55:29.672Z,7.53
2023-01-05T02:59:55.004Z,7.58
2023-01-05T03:04:23.523Z,7.75
2023-01-05T03:08:53.259Z,7.51
2023-01-05T03:13:30.064Z,7.44
2023-01-05T03:17:55.324Z,7.39
2023-01-05T03:22:42.120Z,7.39
2023-01-05T03:27:19.051Z,7.40
2023-01-05T03:32:10.001Z,7.36
2023-01-05T03:36:29.889Z,7.36
2023-01-05T03:40:53.791Z,7.33
2023-01-05T03:45:12.407Z,7.30
2023-01-05T03:49:29.862Z,7.29
2023-01-05T03:53:47.481Z,7.32
2023-01-05T03:58:05.231Z,7.32
2023-01-05T04:02:22.896Z,7.32
2023-01-05T04:06:40.595Z,7.29
2023-01-05T04:11:04.335Z,7.27
2023-01-05T04:15:22.012Z,7.30
2023-01-05T04:19:39.470Z,7.34
2023-01-05T04:23:57.057Z,7.42
2023-01-05T04:28:14.089Z,7.39
2023-01-05T04:32:31.854Z,7.42
2023-01-05T04:36:49.732Z,7.34
2023-01-05T04:41:07.273Z,7.39
2023-01-05T04:45:24.868Z,7.30
2023-01-05T04:49:42.965Z,7.30
2023-01-05T04:54:00.417Z,7.33
2023-01-05T04:58:19.390Z,7.32
2023-01-05T05:02:37.168Z,7.32
2023-01-05T05:06:56.449Z,7.32
2023-01-05T05:11:14.120Z,7.39
2023-01-05T05:15:31.682Z,7.39
2023-01-05T05:19:49.164Z,7.32
2023-01-05T05:24:06.959Z,7.30
2023-01-05T05:28:28.321Z,7.34
2023-01-05T05:32:46.110Z,7.33
2023-01-05T05:37:03.600Z,7.29
2023-01-05T05:41:21.138Z,7.26
2023-01-05T05:45:38.756Z,7.23
2023-01-05T05:49:56.479Z,7.26
2023-01-05T05:54:13.993Z,7.20
2023-01-05T05:58:31.682Z,6.57
2023-01-05T06:02:49.313Z,5.98
2023-01-05T06:07:06.946Z,5.82
2023-01-05T06:11:24.532Z,5.75
2023-01-05T06:15:43.081Z,5.74
2023-01-05T06:20:00.675Z,5.69
2023-01-05T06:24:18.415Z,5.70
2023-01-05T06:28:35.844Z,5.71
2023-01-05T06:32:53.440Z,5.71
2023-01-05T06:37:10.955Z,5.70
2023-01-05T06:41:28.498Z,5.74
2023-01-05T06:45:46.029Z,5.73
2023-01-05T06:50:04.111Z,5.69
2023-01-05T06:54:21.504Z,5.73
2023-01-05T06:58:39.215Z,5.67
2023-01-05T07:02:56.734Z,5.71
2023-01-05T07:07:17.072Z,5.77
2023-01-05T07:11:35.025Z,5.78
2023-01-05T07:15:52.748Z,5.82
2023-01-05T07:20:10.692Z,5.88
2023-01-05T07:24:28.382Z,5.94
2023-01-05T07:28:46.033Z,6.03
2023-01-05T07:33:03.890Z,6.12
2023-01-05T07:37:21.415Z,6.20
2023-01-05T11:22:40.395Z,8.20
2023-01-05T11:27:21.275Z,8.23
2023-01-05T11:31:53.565Z,8.02
2023-01-05T11:36:15.055Z,7.85
2023-01-05T11:40:36.164Z,7.82
2023-01-05T11:45:21.306Z,7.68
2023-01-05T11:49:39.095Z,7.78
2023-01-05T11:53:56.740Z,7.94
2023-01-05T11:58:27.016Z,7.98
2023-01-05T12:03:03.325Z,7.95
2023-01-05T12:07:37.621Z,7.87
2023-01-05T12:11:55.063Z,7.81
2023-01-05T12:16:27.704Z,7.77
2023-01-05T12:21:01.509Z,7.71
2023-01-05T12:25:26.317Z,7.51
2023-01-05T12:35:20.122Z,7.62
2023-01-05T12:40:06.712Z,7.74
2023-01-05T12:44:45.476Z,7.62
2023-01-05T12:49:11.208Z,7.72
2023-01-05T12:53:43.855Z,7.09
2023-01-05T12:58:31.644Z,4.81
2023-01-05T13:03:01.028Z,4.88
2023-01-05T13:07:33.172Z,4.88
2023-01-05T13:12:05.353Z,4.98
2023-01-05T13:16:42.082Z,5.02
2023-01-05T13:21:04.342Z,4.99
2023-01-05T13:25:27.919Z,4.92
2023-01-05T13:29:51.132Z,4.88
2023-01-05T13:34:17.900Z,4.87
2023-01-05T13:39:25.188Z,4.85
2023-01-05T13:44:29.061Z,4.95
2023-01-05T13:49:04.053Z,4.94
2023-01-05T13:53:26.052Z,4.95
2023-01-05T13:57:44.539Z,4.89
2023-01-05T14:02:03.377Z,4.83
2023-01-05T14:06:38.300Z,4.75
2023-01-05T14:11:15.698Z,4.78
2023-01-05T14:15:44.503Z,4.88
2023-01-05T14:20:01.551Z,5.08
2023-01-05T14:28:56.986Z,5.24
2023-01-05T14:33:18.771Z,5.18
2023-01-05T14:38:00.684Z,5.34
2023-01-05T14:42:32.938Z,5.43
2023-01-05T14:46:56.174Z,5.44
2023-01-05T14:51:16.127Z,5.64
2023-01-05T14:56:03.761Z,5.73
2023-01-05T15:00:48.388Z,5.71
2023-01-05T15:05:18.765Z,5.78
2023-01-05T15:09:48.509Z,5.85
2023-01-05T15:14:31.940Z,5.84
2023-01-05T15:19:22.029Z,5.94
2023-01-05T15:24:21.453Z,5.92
2023-01-05T15:29:40.081Z,6.20
2023-01-05T15:34:16.777Z,6.15
2023-01-05T15:38:46.301Z,6.10
2023-01-05T15:43:04.456Z,6.12
2023-01-05T16:00:43.464Z,6.23
2023-01-05T16:05:24.237Z,6.22
2023-01-05T16:09:46.895Z,6.23
2023-01-05T16:14:14.077Z,6.02
2023-01-05T16:18:40.211Z,5.91
2023-01-05T16:23:17.138Z,5.81
2023-01-05T16:27:40.669Z,5.82
2023-01-05T16:31:58.401Z,5.74
2023-01-05T16:36:22.354Z,5.77
2023-01-05T16:40:45.760Z,5.80
2023-01-05T16:45:03.246Z,5.88
2023-01-05T16:49:49.858Z,5.87
2023-01-05T16:54:45.286Z,5.89
2023-01-05T16:59:31.169Z,5.94
2023-01-05T17:03:49.328Z,5.92
2023-01-05T17:08:10.733Z,5.95
2023-01-05T17:12:28.142Z,5.84
2023-01-05T17:16:46.289Z,5.85
2023-01-05T17:21:06.136Z,5.88
2023-01-05T17:25:31.579Z,5.82
2023-01-05T17:29:49.162Z,5.85
2023-01-05T17:34:07.089Z,5.81
2023-01-05T17:38:24.967Z,5.82
2023-01-05T17:42:44.939Z,5.89
2023-01-05T17:47:02.668Z,5.89
2023-01-05T17:51:20.575Z,5.94
2023-01-05T17:55:38.450Z,5.84
2023-01-05T17:59:56.262Z,5.85
2023-01-05T18:04:13.656Z,5.77
2023-01-05T18:08:31.531Z,5.78
2023-01-05T18:12:49.560Z,5.74
2023-01-05T18:17:06.720Z,5.92
2023-01-05T18:21:24.412Z,5.67
2023-01-05T18:25:42.052Z,5.63
2023-01-05T18:29:59.437Z,5.51
2023-01-05T18:34:16.958Z,5.39
2023-01-05T18:38:34.700Z,5.32
2023-01-05T18:42:52.194Z,5.30
2023-01-05T18:47:09.732Z,5.30
2023-01-05T18:51:27.669Z,5.24
2023-01-05T18:55:45.208Z,5.22
2023-01-05T19:00:05.599Z,5.13
2023-01-05T19:04:23.150Z,5.09
2023-01-05T19:08:42.918Z,5.09
2023-01-05T19:13:00.481Z,4.98
2023-01-05T19:17:18.205Z,4.91
2023-01-05T19:21:39.426Z,4.83
2023-01-05T19:26:05.915Z,4.81
2023-01-05T19:30:24.958Z,4.81
2023-01-05T19:34:42.918Z,4.87
2023-01-05T19:39:28.301Z,4.81
2023-01-05T19:43:54.448Z,4.54
2023-01-05T19:48:11.979Z,4.34
2023-01-05T19:52:30.272Z,4.26
2023-01-05T19:56:47.872Z,4.16
2023-01-05T20:01:14.468Z,4.15
2023-01-05T20:05:32.108Z,4.10
2023-01-05T20:09:51.471Z,4.09
2023-01-05T20:14:25.161Z,4.08
2023-01-05T20:18:42.891Z,4.02
2023-01-05T20:23:00.485Z,3.95
2023-01-05T20:27:19.362Z,3.85
2023-01-05T20:31:41.387Z,3.80
2023-01-05T20:35:59.117Z,3.81
2023-01-05T20:40:16.821Z,3.89
2023-01-05T20:44:38.191Z,3.80
2023-01-05T20:48:55.574Z,3.57
2023-01-05T20:53:13.342Z,3.66
2023-01-05T20:57:30.989Z,3.69
2023-01-05T21:01:50.000Z,3.63
2023-01-05T21:06:11.039Z,3.67
2023-01-05T21:10:29.760Z,3.66
2023-01-05T21:14:46.757Z,3.66
2023-01-05T21:19:06.146Z,3.51
2023-01-05T21:23:23.956Z,3.53
2023-01-05T21:27:44.472Z,3.51
2023-01-05T21:32:02.372Z,3.56
2023-01-05T21:36:31.433Z,3.50
2023-01-05T21:40:48.968Z,3.51
2023-01-05T21:45:08.630Z,3.49
2023-01-05T21:49:27.297Z,3.43
2023-01-05T21:54:03.676Z,3.44
2023-01-05T21:58:21.669Z,3.44
2023-01-05T22:02:38.730Z,3.43
2023-01-05T22:06:56.545Z,3.43
2023-01-05T22:11:13.933Z,3.42
2023-01-05T22:15:31.587Z,3.44
2023-01-05T22:19:49.138Z,3.43
2023-01-05T22:24:07.696Z,3.42
2023-01-05T22:28:25.171Z,3.39
2023-01-05T22:32:42.524Z,3.42
2023-01-05T22:37:00.128Z,3.39
2023-01-05T22:41:24.431Z,3.36
2023-01-05T22:45:44.886Z,3.32
2023-01-05T22:50:04.223Z,3.26
2023-01-05T22:54:22.075Z,3.26
2023-01-05T22:58:40.588Z,3.32
2023-01-05T23:03:00.274Z,3.30
2023-01-05T23:07:20.797Z,3.20
2023-01-05T23:11:42.078Z,3.29
2023-01-05T23:15:59.594Z,3.23
2023-01-05T23:20:17.277Z,3.22
2023-01-05T23:24:34.998Z,3.25
2023-01-05T23:28:53.068Z,3.26
2023-01-05T23:33:10.400Z,3.19
2023-01-05T23:37:31.246Z,3.16
2023-01-05T23:41:48.863Z,3.19
2023-01-05T23:46:20.574Z,3.15
2023-01-05T23:50:43.627Z,3.12
2023-01-05T23:55:01.698Z,3.15
2023-01-05T23:59:19.320Z,3.12
